Time;durP1;ratioP1;P1;durP2;ratioP2;P2;SDS_P1;SDS_P2;PMS_P1;PMS_P2;Temp;Humidity;BMP_temperature;BMP_pressure;BME280_temperature;BME280_humidity;BME280_pressure;Samples;Min_cycle;Max_cycle;Signal;HPM_P1;HPM_P2
2023/09/25 00:01:16;;;;;;;2.47;1.20;;;;;;;12.21;80.44;102063.69;4942837;29;20090;-80
2023/09/25 00:03:41;;;;;;;2.90;1.33;;;;;;;12.20;80.41;102068.03;4947639;29;20039;-81
2023/09/25 00:06:06;;;;;;;2.38;1.30;;;;;;;12.20;80.61;102069.78;4941326;29;20051;-81
2023/09/25 00:08:32;;;;;;;2.28;1.10;;;;;;;12.16;80.29;102068.94;4950042;29;20034;-80
2023/09/25 00:10:57;;;;;;;2.60;1.30;;;;;;;12.15;80.55;102075.03;4945472;29;20110;-80
2023/09/25 00:13:22;;;;;;;2.45;1.17;;;;;;;12.14;80.22;102078.53;4947312;28;20098;-80
2023/09/25 00:15:47;;;;;;;3.33;1.20;;;;;;;12.13;80.21;102071.56;4951693;29;20030;-80
2023/09/25 00:18:14;;;;;;;2.08;1.30;;;;;;;12.12;80.11;102085.53;4948392;29;20031;-80
2023/09/25 00:20:40;;;;;;;2.85;1.30;;;;;;;12.09;79.91;102078.59;4948502;28;20023;-80
2023/09/25 00:23:05;;;;;;;1.48;1.10;;;;;;;12.09;80.29;102082.97;4946344;28;20035;-80
2023/09/25 00:25:31;;;;;;;2.28;1.40;;;;;;;12.08;79.90;102079.47;4949826;28;20050;-81
2023/09/25 00:27:57;;;;;;;2.35;1.30;;;;;;;12.07;80.02;102076.91;4950636;28;20047;-81
2023/09/25 00:30:22;;;;;;;1.95;1.17;;;;;;;12.05;79.62;102078.66;4951180;28;20520;-80
2023/09/25 00:32:50;;;;;;;3.88;1.42;;;;;;;12.03;80.28;102083.03;4941235;28;20027;-81
2023/09/25 00:35:15;;;;;;;2.40;1.38;;;;;;;12.01;79.91;102082.16;4939349;29;20704;-80
2023/09/25 00:37:41;;;;;;;2.38;1.10;;;;;;;11.97;80.29;102071.75;4944139;28;20528;-80
2023/09/25 00:40:13;;;;;;;2.40;1.50;;;;;;;11.97;79.78;102081.31;4941965;29;20032;-81
2023/09/25 00:42:45;;;;;;;2.90;1.30;;;;;;;11.95;79.81;102073.53;4941649;29;20024;-81
2023/09/25 00:45:10;;;;;;;2.17;1.10;;;;;;;11.94;79.95;102079.63;4941765;28;20130;-80
2023/09/25 00:47:37;;;;;;;2.05;1.20;;;;;;;11.92;79.40;102078.78;4949530;28;20107;-80
2023/09/25 00:50:06;;;;;;;3.28;1.60;;;;;;;11.90;79.77;102074.44;4943327;28;20380;-80
2023/09/25 00:52:33;;;;;;;3.08;1.42;;;;;;;11.90;79.72;102074.44;4939127;29;20486;-80
2023/09/25 00:55:03;;;;;;;2.70;1.40;;;;;;;11.88;79.40;102070.97;4935767;29;20038;-80
2023/09/25 00:57:28;;;;;;;2.92;1.70;;;;;;;11.86;79.56;102071.00;4938161;29;20420;-80
2023/09/25 00:59:53;;;;;;;2.58;1.50;;;;;;;11.84;79.26;102068.44;4950512;29;20466;-81
2023/09/25 01:02:19;;;;;;;3.05;1.35;;;;;;;11.84;79.27;102072.75;4946160;28;21977;-80
2023/09/25 01:04:45;;;;;;;2.08;1.30;;;;;;;11.82;78.92;102071.91;4943622;28;20035;-80
2023/09/25 01:07:10;;;;;;;2.45;1.42;;;;;;;11.80;78.87;102073.66;4953143;29;20089;-80
2023/09/25 01:09:35;;;;;;;2.70;1.40;;;;;;;11.79;78.79;102078.03;4949568;28;20039;-80
2023/09/25 01:12:01;;;;;;;2.25;1.45;;;;;;;11.78;78.98;102086.75;4954447;29;20137;-80
2023/09/25 01:14:27;;;;;;;2.13;1.30;;;;;;;11.76;78.53;102088.50;4954029;28;20035;-80
2023/09/25 01:16:52;;;;;;;3.03;1.40;;;;;;;11.75;78.83;102081.56;4954468;29;20087;-80
2023/09/25 01:19:18;;;;;;;2.40;1.27;;;;;;;11.75;78.69;102085.91;4952505;28;20123;-80
2023/09/25 01:21:46;;;;;;;3.20;1.60;;;;;;;11.75;78.59;102075.50;4941107;29;20035;-80
2023/09/25 01:24:12;;;;;;;1.90;1.23;;;;;;;11.74;78.19;102078.97;4943487;29;20031;-80
2023/09/25 01:26:37;;;;;;;2.30;1.25;;;;;;;11.72;78.19;102084.19;4951287;28;20041;-81
2023/09/25 01:29:02;;;;;;;2.17;1.30;;;;;;;11.72;78.22;102080.72;4949861;29;20073;-81
2023/09/25 01:31:28;;;;;;;2.55;1.38;;;;;;;11.72;77.87;102070.31;4949254;29;20316;-80
2023/09/25 01:33:53;;;;;;;3.00;1.33;;;;;;;11.69;78.12;102068.59;4949388;28;20058;-80
2023/09/25 01:36:19;;;;;;;2.08;1.23;;;;;;;11.71;78.28;102073.78;4951772;28;20035;-80
2023/09/25 01:38:46;;;;;;;3.00;1.30;;;;;;;11.68;78.13;102077.31;4950082;28;20035;-80
2023/09/25 01:41:11;;;;;;;2.97;1.27;;;;;;;11.67;78.22;102068.59;4954193;28;20027;-80
2023/09/25 01:43:37;;;;;;;2.67;1.33;;;;;;;11.66;78.96;102066.88;4949221;29;20057;-80
2023/09/25 01:46:03;;;;;;;2.42;1.27;;;;;;;11.67;78.53;102067.75;4952575;29;20493;-80
2023/09/25 01:48:28;;;;;;;2.53;1.40;;;;;;;11.65;78.44;102065.13;4948703;29;20032;-80
2023/09/25 01:50:54;;;;;;;3.03;1.40;;;;;;;11.64;78.53;102066.03;4948378;29;20076;-80
2023/09/25 01:53:19;;;;;;;2.72;1.25;;;;;;;11.63;78.25;102074.72;4950511;29;20508;-81
2023/09/25 01:55:44;;;;;;;2.88;1.35;;;;;;;11.61;78.42;102068.69;4945369;29;20035;-80
2023/09/25 01:58:09;;;;;;;2.20;1.40;;;;;;;11.59;77.88;102069.56;4942810;29;20029;-81
2023/09/25 02:00:35;;;;;;;5.00;1.50;;;;;;;11.57;78.48;102072.19;4945483;28;20030;-80
2023/09/25 02:03:00;;;;;;;1.77;1.27;;;;;;;11.56;78.32;102072.19;4945502;28;20028;-80
2023/09/25 02:05:25;;;;;;;2.13;1.30;;;;;;;11.54;78.21;102064.41;4951302;28;20043;-80
2023/09/25 02:07:50;;;;;;;3.00;1.48;;;;;;;11.51;78.05;102062.69;4952816;28;20059;-80
2023/09/25 02:10:16;;;;;;;2.17;1.30;;;;;;;11.49;78.05;102059.25;4947319;28;20031;-80
2023/09/25 02:12:41;;;;;;;2.08;1.30;;;;;;;11.50;78.06;102060.09;4951640;28;20410;-80
2023/09/25 02:15:08;;;;;;;2.15;1.23;;;;;;;11.49;78.03;102060.97;4952404;28;20031;-80
2023/09/25 02:17:34;;;;;;;2.30;1.40;;;;;;;11.48;78.15;102061.84;4947525;28;20047;-80
2023/09/25 02:20:19;;;;;;;2.45;1.20;;;;;;;11.45;77.75;102056.66;4953894;28;20034;-80
2023/09/25 02:22:46;;;;;;;2.08;1.35;;;;;;;11.45;78.07;102056.66;4950480;29;20035;-80
2023/09/25 02:25:12;;;;;;;1.90;1.10;;;;;;;11.43;77.81;102063.66;4945735;28;20550;-81
2023/09/25 02:27:41;;;;;;;2.80;1.38;;;;;;;11.42;78.18;102056.72;4947328;28;20111;-80
2023/09/25 02:30:08;;;;;;;2.10;1.40;;;;;;;11.39;78.01;102048.03;4950844;29;20035;-80
2023/09/25 02:32:33;;;;;;;2.90;1.40;;;;;;;11.39;78.21;102053.25;4947702;28;20027;-80
2023/09/25 02:34:58;;;;;;;2.42;1.35;;;;;;;11.38;77.58;102050.66;4948787;29;20506;-81
2023/09/25 02:37:24;;;;;;;2.70;1.40;;;;;;;11.37;78.02;102060.22;4945221;28;20062;-80
2023/09/25 02:39:49;;;;;;;2.88;1.40;;;;;;;11.36;77.87;102053.28;4940594;28;20027;-80
2023/09/25 02:42:14;;;;;;;2.55;1.30;;;;;;;11.36;78.14;102055.88;4952934;28;20046;-81
2023/09/25 02:44:40;;;;;;;2.35;1.38;;;;;;;11.35;78.20;102056.75;4950435;28;20029;-80
2023/09/25 02:47:06;;;;;;;2.75;1.60;;;;;;;11.33;78.18;102055.91;4948184;29;20019;-80
2023/09/25 02:49:31;;;;;;;2.30;1.40;;;;;;;11.32;78.46;102051.56;4941019;29;20361;-80
2023/09/25 02:51:56;;;;;;;2.30;1.25;;;;;;;11.30;78.57;102053.31;4950178;29;20475;-80
2023/09/25 02:54:22;;;;;;;2.58;1.38;;;;;;;11.30;77.85;102061.13;4944333;29;20074;-80
2023/09/25 02:56:47;;;;;;;2.92;1.40;;;;;;;11.29;78.31;102056.81;4942886;29;20024;-80
2023/09/25 02:59:12;;;;;;;1.98;1.30;;;;;;;11.27;78.87;102063.81;4944559;28;20031;-80
2023/09/25 03:01:37;;;;;;;2.50;1.60;;;;;;;11.27;78.39;102065.53;4940221;29;20082;-80
2023/09/25 03:04:03;;;;;;;2.20;1.27;;;;;;;11.27;78.55;102066.41;4945575;29;20026;-80
2023/09/25 03:06:28;;;;;;;3.28;1.27;;;;;;;11.26;78.71;102062.06;4948036;28;20027;-80
2023/09/25 03:08:54;;;;;;;3.03;1.50;;;;;;;11.25;78.21;102060.34;4948270;29;20034;-80
2023/09/25 03:11:19;;;;;;;2.63;1.23;;;;;;;11.23;78.83;102062.94;4951119;29;20048;-80
2023/09/25 03:13:44;;;;;;;3.17;1.40;;;;;;;11.24;78.92;102063.81;4950861;28;20034;-80
2023/09/25 03:16:13;;;;;;;2.83;1.63;;;;;;;11.23;78.85;102067.28;4943840;29;20023;-80
2023/09/25 03:18:39;;;;;;;3.10;1.30;;;;;;;11.20;78.96;102069.94;4948484;28;20097;-80
2023/09/25 03:21:11;;;;;;;3.05;1.60;;;;;;;11.19;79.04;102062.97;4948627;29;20055;-80
2023/09/25 03:23:36;;;;;;;2.90;1.42;;;;;;;11.17;79.04;102059.53;4948377;28;20023;-80
2023/09/25 03:26:01;;;;;;;2.00;1.20;;;;;;;11.15;79.31;102063.88;4950230;29;20042;-80
2023/09/25 03:28:27;;;;;;;1.95;1.35;;;;;;;11.13;79.41;102063.03;4949502;29;20038;-80
2023/09/25 03:30:52;;;;;;;2.08;1.30;;;;;;;11.12;79.43;102056.09;4949500;28;20490;-80
2023/09/25 03:33:18;;;;;;;3.15;1.50;;;;;;;11.13;79.35;102060.41;4942907;29;20031;-80
2023/09/25 03:35:43;;;;;;;2.35;1.50;;;;;;;11.12;79.44;102056.97;4945358;28;20498;-80
2023/09/25 03:38:09;;;;;;;2.90;1.20;;;;;;;11.13;79.37;102057.81;4952295;29;20423;-80
2023/09/25 03:40:34;;;;;;;2.13;1.10;;;;;;;11.12;79.46;102054.38;4945679;29;20049;-80
2023/09/25 03:43:00;;;;;;;2.70;1.60;;;;;;;11.11;79.64;102047.44;4949050;28;20033;-80
2023/09/25 03:45:25;;;;;;;2.35;1.48;;;;;;;11.12;79.63;102058.69;4939728;29;20027;-80
2023/09/25 03:47:50;;;;;;;1.75;1.25;;;;;;;11.11;79.92;102059.56;4947464;29;20059;-80
2023/09/25 03:50:16;;;;;;;2.33;1.30;;;;;;;11.11;79.64;102067.38;4943671;28;20503;-80
2023/09/25 03:52:42;;;;;;;3.60;1.45;;;;;;;11.10;80.09;102070.88;4944872;28;20027;-80
2023/09/25 03:55:08;;;;;;;3.72;1.40;;;;;;;11.08;79.76;102074.38;4947360;28;20054;-80
2023/09/25 03:57:34;;;;;;;2.47;1.45;;;;;;;11.08;79.82;102073.50;4946731;28;20055;-80
2023/09/25 03:59:59;;;;;;;3.45;1.30;;;;;;;11.07;79.85;102069.16;4938039;29;20027;-80
2023/09/25 04:02:24;;;;;;;2.40;1.35;;;;;;;11.04;80.13;102067.44;4940406;29;20020;-80
2023/09/25 04:04:49;;;;;;;2.42;1.35;;;;;;;11.03;80.12;102070.94;4952721;29;20110;-80
2023/09/25 04:07:15;;;;;;;2.28;1.40;;;;;;;11.02;80.42;102065.72;4948358;29;20506;-80
2023/09/25 04:09:41;;;;;;;2.55;1.40;;;;;;;11.02;80.24;102069.19;4945684;29;20031;-80
2023/09/25 04:12:08;;;;;;;3.30;1.38;;;;;;;11.01;80.30;102070.06;4949284;28;20028;-80
2023/09/25 04:14:35;;;;;;;4.13;1.40;;;;;;;11.01;80.73;102074.44;4951425;28;20053;-80
2023/09/25 04:17:01;;;;;;;2.90;1.60;;;;;;;11.00;80.17;102065.75;4949218;28;20028;-80
2023/09/25 04:19:27;;;;;;;1.80;1.35;;;;;;;10.99;80.42;102068.38;4948056;29;20058;-80
2023/09/25 04:21:53;;;;;;;2.88;1.50;;;;;;;10.97;80.65;102068.34;4942414;29;20445;-80
2023/09/25 04:24:18;;;;;;;2.53;1.50;;;;;;;10.95;80.94;102069.25;4950698;28;20459;-80
2023/09/25 04:26:43;;;;;;;2.97;1.45;;;;;;;10.93;80.83;102066.69;4945415;29;20419;-80
2023/09/25 04:29:14;;;;;;;2.72;1.30;;;;;;;10.93;80.71;102069.28;4948316;28;20035;-80
2023/09/25 04:31:39;;;;;;;2.60;1.52;;;;;;;10.93;80.82;102071.88;4942779;28;20051;-80
2023/09/25 04:34:04;;;;;;;3.38;1.50;;;;;;;10.91;81.05;102061.47;4940272;29;20067;-80
2023/09/25 04:36:30;;;;;;;3.15;1.58;;;;;;;10.91;81.15;102071.03;4938382;29;20043;-80
2023/09/25 04:38:55;;;;;;;2.30;1.40;;;;;;;10.89;80.85;102068.41;4956128;28;20026;-81
2023/09/25 04:41:21;;;;;;;2.17;1.45;;;;;;;10.89;81.24;102075.38;4955164;29;20027;-80
2023/09/25 04:43:47;;;;;;;2.10;1.30;;;;;;;10.88;81.16;102078.84;4941315;29;20035;-80
2023/09/25 04:46:13;;;;;;;4.13;1.50;;;;;;;10.87;81.40;102082.34;4941371;29;20036;-81
2023/09/25 04:48:38;;;;;;;4.00;1.50;;;;;;;10.85;81.36;102082.31;4949811;29;20023;-80
2023/09/25 04:51:03;;;;;;;1.92;1.30;;;;;;;10.85;81.33;102086.69;4949852;29;20034;-81
2023/09/25 04:53:29;;;;;;;4.47;1.38;;;;;;;10.84;81.42;102080.63;4948950;28;20027;-80
2023/09/25 04:55:55;;;;;;;2.72;1.50;;;;;;;10.85;81.38;102086.69;4948172;29;20364;-80
2023/09/25 04:58:20;;;;;;;2.30;1.48;;;;;;;10.86;81.73;102083.22;4944079;28;20041;-80
2023/09/25 05:00:46;;;;;;;3.10;1.33;;;;;;;10.86;81.57;102083.22;4950699;29;20029;-80
2023/09/25 05:03:11;;;;;;;2.00;1.30;;;;;;;10.85;81.54;102076.28;4948878;28;20365;-81
2023/09/25 05:05:36;;;;;;;2.95;1.58;;;;;;;10.85;81.64;102078.88;4949793;29;20066;-80
2023/09/25 05:08:02;;;;;;;2.65;1.48;;;;;;;10.84;81.47;102071.94;4951717;29;20031;-80
2023/09/25 05:10:28;;;;;;;3.08;1.45;;;;;;;10.83;81.46;102072.81;4948089;28;20119;-80
2023/09/25 05:12:55;;;;;;;2.05;1.38;;;;;;;10.82;81.55;102071.06;4950666;28;20118;-80
2023/09/25 05:15:21;;;;;;;2.70;1.45;;;;;;;10.83;81.69;102080.63;4954197;28;20483;-80
2023/09/25 05:17:47;;;;;;;3.25;1.40;;;;;;;10.82;81.53;102078.88;4946730;28;20027;-80
2023/09/25 05:20:18;;;;;;;2.38;1.33;;;;;;;10.82;81.39;102079.78;4944653;29;20037;-80
2023/09/25 05:22:48;;;;;;;2.38;1.42;;;;;;;10.82;81.87;102077.16;4944475;29;20023;-80
2023/09/25 05:25:15;;;;;;;2.97;1.40;;;;;;;10.81;81.80;102084.97;4943493;28;20464;-80
2023/09/25 05:27:43;;;;;;;2.30;1.38;;;;;;;10.80;81.62;102084.13;4945464;28;20031;-80
2023/09/25 05:30:10;;;;;;;2.38;1.40;;;;;;;10.82;81.70;102089.31;4948067;28;20110;-80
2023/09/25 05:32:38;;;;;;;2.78;1.50;;;;;;;10.82;81.58;102089.31;4950261;29;20023;-80
2023/09/25 05:35:04;;;;;;;2.55;1.35;;;;;;;10.82;81.51;102084.09;4946406;29;20494;-80
2023/09/25 05:37:30;;;;;;;3.75;1.50;;;;;;;10.84;81.55;102090.16;4945778;29;20023;-80
2023/09/25 05:39:55;;;;;;;3.05;1.30;;;;;;;10.84;81.31;102090.16;4951147;29;20031;-80
2023/09/25 05:42:20;;;;;;;2.05;1.27;;;;;;;10.85;81.58;102095.34;4946115;28;20062;-80
2023/09/25 05:44:46;;;;;;;2.30;1.30;;;;;;;10.85;81.83;102100.56;4951475;29;20541;-80
2023/09/25 05:47:12;;;;;;;2.22;1.30;;;;;;;10.85;81.52;102097.09;4944850;28;20050;-80
2023/09/25 05:49:37;;;;;;;2.22;1.35;;;;;;;10.88;81.60;102094.47;4948408;28;20031;-80
2023/09/25 05:52:03;;;;;;;2.15;1.45;;;;;;;10.88;81.69;102091.88;4944611;29;20023;-80
2023/09/25 05:54:28;;;;;;;2.33;1.33;;;;;;;10.92;81.38;102093.59;4945678;28;20494;-80
2023/09/25 05:56:54;;;;;;;2.85;1.20;;;;;;;10.93;81.33;102090.13;4949223;28;20031;-80
2023/09/25 05:59:19;;;;;;;4.00;1.25;;;;;;;10.95;81.56;102093.53;4944844;29;20487;-80
2023/09/25 06:01:44;;;;;;;2.60;1.50;;;;;;;10.97;81.42;102096.16;4945192;28;20102;-80
2023/09/25 06:04:10;;;;;;;2.90;1.40;;;;;;;10.98;81.27;102101.34;4946869;28;20038;-82
2023/09/25 06:06:35;;;;;;;2.28;1.30;;;;;;;11.01;81.49;102098.72;4945524;29;20463;-81
2023/09/25 06:09:02;;;;;;;3.58;1.60;;;;;;;11.04;81.40;102105.63;4947428;29;20175;-81
2023/09/25 06:11:27;;;;;;;2.55;1.40;;;;;;;11.06;81.47;102106.50;4947759;29;20027;-81
2023/09/25 06:13:52;;;;;;;2.70;1.40;;;;;;;11.10;81.46;102112.56;4945048;28;20045;-82
2023/09/25 06:16:18;;;;;;;2.20;1.30;;;;;;;11.12;81.25;102109.06;4945254;29;20169;-82
2023/09/25 06:18:43;;;;;;;1.85;1.25;;;;;;;11.15;81.36;102113.38;4950307;28;20506;-82
2023/09/25 06:21:12;;;;;;;2.53;1.35;;;;;;;11.17;81.39;102103.81;4946937;28;20055;-82
2023/09/25 06:23:38;;;;;;;2.08;1.30;;;;;;;11.20;81.28;102107.25;4964519;28;20038;-82
2023/09/25 06:26:04;;;;;;;2.20;1.30;;;;;;;11.22;81.05;102107.25;4945312;28;20110;-82
2023/09/25 06:28:30;;;;;;;4.22;1.48;;;;;;;11.26;81.16;102106.34;4946501;28;20035;-82
2023/09/25 06:30:55;;;;;;;3.25;1.30;;;;;;;11.29;81.23;102121.94;4948879;29;20054;-82
2023/09/25 06:33:21;;;;;;;2.92;1.40;;;;;;;11.31;80.99;102122.78;4944168;28;20079;-82
2023/09/25 06:35:46;;;;;;;2.97;1.40;;;;;;;11.34;80.95;102116.72;4950913;28;20475;-82
2023/09/25 06:38:11;;;;;;;2.00;1.30;;;;;;;11.37;81.04;102112.31;4950877;29;20035;-82
2023/09/25 06:40:43;;;;;;;2.63;1.40;;;;;;;11.43;80.77;102118.38;4949864;29;20051;-83
2023/09/25 06:43:08;;;;;;;2.33;1.35;;;;;;;11.48;81.22;102121.78;4944521;28;20102;-83
2023/09/25 06:45:34;;;;;;;2.78;1.40;;;;;;;11.50;81.53;102112.22;4946214;29;20066;-82
2023/09/25 06:47:59;;;;;;;3.40;1.60;;;;;;;11.56;81.03;102112.16;4940307;29;20387;-82
2023/09/25 06:50:25;;;;;;;3.13;1.58;;;;;;;11.63;80.90;102113.81;4943497;29;20031;-82
2023/09/25 06:52:50;;;;;;;3.15;1.40;;;;;;;11.65;80.73;102106.84;4944844;29;20043;-82
2023/09/25 06:55:16;;;;;;;3.03;1.52;;;;;;;11.69;80.65;102111.16;4946101;29;20364;-82
2023/09/25 06:57:41;;;;;;;3.08;1.63;;;;;;;11.74;80.55;102110.25;4940881;29;20039;-82
2023/09/25 07:00:07;;;;;;;3.72;1.60;;;;;;;11.77;80.61;102100.66;4939580;29;20024;-82
2023/09/25 07:02:32;;;;;;;5.55;1.73;;;;;;;11.82;80.20;102104.09;4947572;28;20123;-82
2023/09/25 07:04:59;;;;;;;4.30;1.67;;;;;;;11.87;80.12;102105.78;4941636;29;20039;-82
2023/09/25 07:07:24;;;;;;;2.97;1.60;;;;;;;11.93;80.61;102103.97;4935851;28;20038;-82
2023/09/25 07:09:50;;;;;;;3.75;1.77;;;;;;;11.97;80.39;102108.25;4952895;29;20035;-83
2023/09/25 07:12:17;;;;;;;2.42;1.50;;;;;;;12.03;80.29;102107.38;4936244;29;20055;-82
2023/09/25 07:14:51;;;;;;;3.35;1.95;;;;;;;12.08;79.96;102109.91;4950349;29;20046;-82
2023/09/25 07:17:17;;;;;;;2.85;1.80;;;;;;;12.16;79.98;102113.28;4943756;29;20031;-82
2023/09/25 07:19:42;;;;;;;3.88;2.00;;;;;;;12.23;79.38;102116.69;4953493;29;20391;-82
2023/09/25 07:22:07;;;;;;;4.70;1.90;;;;;;;12.28;79.39;102113.16;4941327;29;20130;-82
2023/09/25 07:24:32;;;;;;;4.15;1.67;;;;;;;12.36;78.92;102106.97;4935565;29;20067;-82
2023/09/25 07:26:58;;;;;;;3.10;1.90;;;;;;;12.41;78.52;102111.25;4936544;29;20051;-82
2023/09/25 07:29:23;;;;;;;3.03;1.70;;;;;;;12.51;78.27;102111.13;4949224;29;20419;-82
2023/09/25 07:31:51;;;;;;;2.72;1.70;;;;;;;12.59;78.37;102110.16;4944785;29;20070;-82
2023/09/25 07:34:16;;;;;;;3.25;1.83;;;;;;;12.67;78.68;102110.03;4950515;29;20054;-81
2023/09/25 07:36:41;;;;;;;3.05;1.88;;;;;;;12.74;78.83;102105.59;4943225;28;20027;-82
2023/09/25 07:39:13;;;;;;;4.15;1.83;;;;;;;12.81;78.23;102109.81;4942169;29;20110;-82
2023/09/25 07:41:38;;;;;;;3.10;1.88;;;;;;;12.88;77.60;102108.84;4952940;29;20027;-82
2023/09/25 07:44:07;;;;;;;4.88;1.83;;;;;;;12.95;76.11;102114.84;4940263;28;20102;-82
2023/09/25 07:46:33;;;;;;;4.28;1.98;;;;;;;13.02;76.77;102105.16;4946017;29;20440;-82
2023/09/25 07:48:59;;;;;;;3.03;1.85;;;;;;;13.09;77.21;102106.81;4940188;28;20070;-82
2023/09/25 07:51:24;;;;;;;3.03;1.90;;;;;;;13.16;76.98;102108.41;4953126;29;20031;-82
2023/09/25 07:53:51;;;;;;;2.78;1.80;;;;;;;13.21;75.59;102101.38;4949096;28;20023;-82
2023/09/25 07:56:16;;;;;;;2.97;1.73;;;;;;;13.27;76.09;102099.53;4937487;28;20055;-82
2023/09/25 07:58:41;;;;;;;3.53;1.85;;;;;;;13.35;76.26;102097.66;4939345;28;20058;-82
2023/09/25 08:01:08;;;;;;;3.00;1.70;;;;;;;13.40;75.15;102105.44;4942364;29;20099;-83
2023/09/25 08:03:34;;;;;;;3.72;1.77;;;;;;;13.44;75.37;102118.44;4943349;28;20023;-82
2023/09/25 08:06:05;;;;;;;4.53;1.67;;;;;;;13.50;74.01;102120.09;4943272;28;20027;-83
2023/09/25 08:08:30;;;;;;;2.63;1.73;;;;;;;13.56;75.84;102127.84;4943895;29;20028;-83
2023/09/25 08:10:55;;;;;;;2.72;1.65;;;;;;;13.60;75.15;102112.94;4950628;29;20027;-83
2023/09/25 08:13:21;;;;;;;3.40;1.73;;;;;;;13.66;75.01;102120.69;4949064;29;20027;-82
2023/09/25 08:15:46;;;;;;;4.18;1.60;;;;;;;13.71;75.10;102115.38;4950328;28;20039;-82
2023/09/25 08:18:12;;;;;;;3.95;1.75;;;;;;;13.76;74.74;102127.47;4949935;29;20034;-83
2023/09/25 08:20:37;;;;;;;3.50;1.83;;;;;;;13.80;73.40;102115.19;4943300;29;20028;-82
2023/09/25 08:23:03;;;;;;;3.63;1.90;;;;;;;13.85;73.44;102122.94;4945229;29;20063;-82
2023/09/25 08:25:30;;;;;;;3.28;1.75;;;;;;;13.90;73.51;102110.66;4952446;29;20562;-82
2023/09/25 08:27:55;;;;;;;2.45;1.42;;;;;;;13.94;73.14;102107.94;4946415;28;20028;-82
2023/09/25 08:30:20;;;;;;;2.67;1.52;;;;;;;13.99;71.31;102105.25;4943013;29;20387;-82
2023/09/25 08:32:46;;;;;;;3.03;1.38;;;;;;;14.03;72.91;102109.50;4947284;28;20059;-82
2023/09/25 08:35:11;;;;;;;3.63;1.48;;;;;;;14.08;72.84;102118.13;4946798;29;20039;-82
2023/09/25 08:37:38;;;;;;;3.13;1.42;;;;;;;14.12;73.59;102116.31;4944065;29;20054;-82
2023/09/25 08:40:06;;;;;;;2.95;1.50;;;;;;;14.14;70.57;102111.91;4950090;28;20110;-82
2023/09/25 08:42:31;;;;;;;4.10;1.80;;;;;;;14.22;73.11;102107.41;4948644;28;20093;-82
2023/09/25 08:45:02;;;;;;;4.28;1.60;;;;;;;14.27;71.68;102100.28;4950360;29;20644;-82
2023/09/25 08:47:30;;;;;;;2.47;1.50;;;;;;;14.34;72.59;102105.41;4949457;29;20050;-81
2023/09/25 08:49:55;;;;;;;2.45;1.50;;;;;;;14.40;71.41;102094.81;4943448;29;20349;-81
2023/09/25 08:52:22;;;;;;;4.13;1.60;;;;;;;14.46;70.53;102099.06;4949559;28;20043;-81
2023/09/25 08:54:48;;;;;;;3.97;1.48;;;;;;;14.52;70.24;102101.50;4947514;28;20111;-82
2023/09/25 08:57:15;;;;;;;3.58;1.60;;;;;;;14.58;70.05;102104.00;4949543;28;20081;-82
2023/09/25 08:59:44;;;;;;;2.42;1.25;;;;;;;14.63;69.43;102099.53;4948710;29;20046;-81
2023/09/25 09:02:10;;;;;;;4.13;1.30;;;;;;;14.70;69.74;102097.66;4946496;29;20074;-81
2023/09/25 09:04:36;;;;;;;2.35;1.48;;;;;;;14.76;69.50;102092.31;4948734;28;20039;-82
2023/09/25 09:07:02;;;;;;;2.90;1.50;;;;;;;14.80;69.78;102098.31;4945154;29;20418;-82
2023/09/25 09:09:27;;;;;;;3.50;1.35;;;;;;;14.87;71.24;102097.25;4944751;28;20035;-82
2023/09/25 09:11:52;;;;;;;1.90;1.40;;;;;;;14.93;71.13;102097.13;4944129;29;20039;-82
2023/09/25 09:14:42;;;;;;;3.78;1.60;;;;;;;14.99;70.88;102083.00;4945823;29;20050;-81
2023/09/25 09:17:10;;;;;;;3.58;1.65;;;;;;;15.04;72.00;102086.38;4946434;28;20019;-81
2023/09/25 09:19:47;;;;;;;2.20;1.50;;;;;;;15.11;71.58;102089.72;4947248;28;20082;-82
2023/09/25 09:22:16;;;;;;;3.25;1.50;;;;;;;15.16;71.38;102096.56;4945259;28;21247;-81
2023/09/25 09:24:41;;;;;;;2.63;1.48;;;;;;;15.23;70.74;102091.19;4947786;29;20030;-81
2023/09/25 09:27:07;;;;;;;2.80;1.48;;;;;;;15.28;69.80;102090.16;4949906;29;20019;-81
2023/09/25 09:29:41;;;;;;;4.38;1.67;;;;;;;15.32;69.28;102091.81;4948707;28;20040;-81
2023/09/25 09:32:08;;;;;;;3.38;1.63;;;;;;;15.37;68.07;102088.22;4944306;29;20042;-82
2023/09/25 09:34:33;;;;;;;2.60;1.55;;;;;;;15.39;67.65;102084.63;4948952;28;20410;-82
2023/09/25 09:36:59;;;;;;;2.83;1.52;;;;;;;15.45;69.42;102088.84;4944741;29;20043;-82
2023/09/25 09:39:34;;;;;;;2.65;1.48;;;;;;;15.48;69.57;102076.50;4949586;29;20107;-82
2023/09/25 09:42:08;;;;;;;3.85;1.80;;;;;;;15.54;70.48;102085.97;4954260;28;20048;-82
2023/09/25 09:44:33;;;;;;;2.97;1.30;;;;;;;15.59;70.29;102081.47;4950051;28;20078;-82
2023/09/25 09:47:04;;;;;;;2.40;1.40;;;;;;;15.66;69.70;102089.19;4944956;29;20024;-82
2023/09/25 09:49:32;;;;;;;3.35;1.45;;;;;;;15.71;68.16;102087.31;4948343;29;20478;-82
2023/09/25 09:52:00;;;;;;;4.93;1.40;;;;;;;15.75;69.67;102086.31;4945940;29;20551;-82
2023/09/25 09:54:29;;;;;;;2.75;1.38;;;;;;;15.77;68.96;102090.63;4947650;28;20507;-82
2023/09/25 09:56:59;;;;;;;2.45;1.20;;;;;;;15.84;69.91;102098.31;4948988;28;20031;-82
2023/09/25 09:59:25;;;;;;;2.72;1.35;;;;;;;15.88;67.71;102103.47;4947160;28;20034;-81
2023/09/25 10:01:50;;;;;;;3.05;1.40;;;;;;;15.93;69.89;102104.19;4947563;28;20024;-82
2023/09/25 10:04:16;;;;;;;3.40;1.27;;;;;;;16.00;68.10;102106.66;4947338;29;20027;-82
2023/09/25 10:06:53;;;;;;;2.47;1.40;;;;;;;16.05;69.92;102097.75;4948962;28;20023;-82
2023/09/25 10:09:19;;;;;;;2.22;1.17;;;;;;;16.11;69.36;102101.94;4943814;29;20042;-82
2023/09/25 10:11:50;;;;;;;2.78;1.30;;;;;;;16.14;69.13;102101.03;4947942;28;20035;-82
2023/09/25 10:14:24;;;;;;;2.63;1.23;;;;;;;16.17;68.52;102107.03;4950735;28;20089;-82
2023/09/25 10:17:05;;;;;;;1.98;1.20;;;;;;;16.22;70.11;102099.91;4950756;29;20027;-82
2023/09/25 10:19:37;;;;;;;3.08;1.30;;;;;;;16.29;70.04;102091.81;4945293;29;20015;-82
2023/09/25 10:22:26;;;;;;;3.33;1.27;;;;;;;16.32;69.31;102095.19;4943869;29;20428;-82
2023/09/25 10:25:09;;;;;;;3.45;1.35;;;;;;;16.39;70.05;102091.50;4949737;28;20506;-82
2023/09/25 10:27:36;;;;;;;2.72;1.25;;;;;;;16.44;68.87;102083.47;4949991;29;20035;-82
2023/09/25 10:30:07;;;;;;;2.88;1.42;;;;;;;16.47;66.98;102080.75;4950039;28;20122;-82
2023/09/25 10:32:35;;;;;;;2.67;1.20;;;;;;;16.54;69.92;102084.03;4949749;28;20174;-82
2023/09/25 10:35:35;;;;;;;2.78;1.40;;;;;;;16.58;69.96;102079.53;4949341;28;20080;-81
2023/09/25 10:38:12;;;;;;;2.45;1.20;;;;;;;16.62;69.92;102086.44;4943712;29;20099;-82
2023/09/25 10:40:41;;;;;;;1.80;1.05;;;;;;;16.66;67.08;102088.06;4948634;29;20478;-81
2023/09/25 10:43:06;;;;;;;2.90;1.30;;;;;;;16.70;66.77;102100.22;4947604;28;20039;-82
2023/09/25 10:45:33;;;;;;;2.75;1.30;;;;;;;16.74;66.94;102093.91;4946049;29;20956;-82
2023/09/25 10:47:59;;;;;;;2.97;1.50;;;;;;;16.78;66.21;102092.91;4946344;28;20023;-82
2023/09/25 10:50:24;;;;;;;2.65;1.40;;;;;;;16.82;67.83;102081.41;4946447;29;20498;-81
2023/09/25 10:52:49;;;;;;;3.30;1.20;;;;;;;16.90;67.72;102077.69;4947447;29;20029;-82
2023/09/25 10:55:15;;;;;;;3.78;1.40;;;;;;;16.95;68.43;102075.78;4944878;28;20023;-82
2023/09/25 10:57:40;;;;;;;2.85;1.60;;;;;;;16.99;65.62;102077.41;4946912;29;20031;-82
2023/09/25 11:00:17;;;;;;;3.03;1.00;;;;;;;17.06;68.64;102075.44;4948742;29;20038;-82
2023/09/25 11:02:42;;;;;;;1.60;1.10;;;;;;;17.09;67.79;102065.66;4946456;28;20086;-81
2023/09/25 11:05:10;;;;;;;2.40;1.25;;;;;;;17.12;66.23;102065.56;4948135;29;20447;-82
2023/09/25 11:07:38;;;;;;;3.28;1.40;;;;;;;17.16;65.67;102065.47;4946776;29;20491;-82
2023/09/25 11:10:08;;;;;;;2.13;1.23;;;;;;;17.19;67.19;102060.94;4949107;29;20086;-82
2023/09/25 11:12:35;;;;;;;2.40;1.15;;;;;;;17.22;67.39;102075.78;4944812;28;20061;-82
2023/09/25 11:15:01;;;;;;;2.92;1.50;;;;;;;17.25;66.59;102091.47;4944058;28;20364;-82
2023/09/25 11:17:26;;;;;;;2.83;1.13;;;;;;;17.28;67.34;102086.06;4945916;29;20494;-83
2023/09/25 11:19:52;;;;;;;3.70;1.33;;;;;;;17.32;67.06;102082.44;4946925;28;20031;-82
2023/09/25 11:22:21;;;;;;;2.80;1.20;;;;;;;17.35;68.28;102089.34;4947877;28;20050;-83